createdAt,value
2023-05-21T00:00:41.967Z,7.63
2023-05-21T00:03:31.521Z,7.35
2023-05-21T00:06:01.933Z,7.35
2023-05-21T00:08:29.940Z,7.10
2023-05-21T00:10:58.261Z,7.40
2023-05-21T00:13:26.027Z,8.00
2023-05-21T00:15:54.284Z,6.95
2023-05-21T00:18:22.487Z,7.68
2023-05-21T00:20:51.257Z,7.20
2023-05-21T00:23:19.536Z,7.80
2023-05-21T00:25:48.263Z,7.65
2023-05-21T00:28:16.290Z,7.40
2023-05-21T00:30:45.039Z,7.55
2023-05-21T00:33:14.124Z,7.95
2023-05-21T00:35:42.472Z,7.63
2023-05-21T00:38:10.346Z,7.45
2023-05-21T00:40:41.451Z,8.02
2023-05-21T00:43:12.384Z,7.88
2023-05-21T00:45:44.987Z,8.13
2023-05-21T00:48:13.646Z,7.88
2023-05-21T00:50:42.329Z,7.43
2023-05-21T00:53:11.212Z,8.00
2023-05-21T00:55:40.287Z,7.38
2023-05-21T00:58:08.761Z,8.07
2023-05-21T01:00:40.891Z,7.78
2023-05-21T01:03:09.352Z,7.07
2023-05-21T01:05:38.020Z,7.50
2023-05-21T01:08:08.017Z,7.72
2023-05-21T01:10:36.282Z,8.23
2023-05-21T01:13:04.245Z,6.68
2023-05-21T01:15:32.686Z,8.07
2023-05-21T01:18:00.663Z,7.88
2023-05-21T01:20:31.092Z,8.20
2023-05-21T01:22:59.685Z,7.32
2023-05-21T01:25:27.890Z,7.15
2023-05-21T01:27:56.322Z,9.23
2023-05-21T01:30:25.145Z,8.43
2023-05-21T01:32:59.108Z,8.88
2023-05-21T01:35:32.782Z,9.05
2023-05-21T01:38:03.509Z,8.93
2023-05-21T01:40:52.430Z,8.88
2023-05-21T01:43:21.193Z,10.35
2023-05-21T01:45:54.453Z,9.50
2023-05-21T01:53:06.541Z,9.60
2023-05-21T01:55:36.301Z,10.55
2023-05-21T01:58:04.528Z,10.05
2023-05-21T02:00:32.869Z,10.32
2023-05-21T02:03:00.925Z,10.57
2023-05-21T02:05:30.587Z,10.45
2023-05-21T02:08:00.242Z,11.45
2023-05-21T02:10:28.403Z,10.35
2023-05-21T02:12:56.238Z,11.07
2023-05-21T02:15:25.113Z,10.75
2023-05-21T02:17:53.322Z,9.27
2023-05-21T02:20:22.908Z,10.32
2023-05-21T02:22:50.684Z,9.82
2023-05-21T02:25:22.285Z,10.20
2023-05-21T02:27:54.025Z,10.57
2023-05-21T02:30:22.328Z,10.35
2023-05-21T02:32:50.997Z,10.65
2023-05-21T02:35:19.177Z,9.88
2023-05-21T02:37:46.914Z,10.02
2023-05-21T02:40:16.701Z,10.23
2023-05-21T02:42:44.466Z,9.43
2023-05-21T02:45:17.472Z,10.80
2023-05-21T02:47:45.604Z,10.40
2023-05-21T02:50:14.146Z,9.65
2023-05-21T02:52:50.774Z,9.60
2023-05-21T02:55:18.963Z,9.95
2023-05-21T02:57:46.765Z,10.25
2023-05-21T03:00:16.379Z,9.93
2023-05-21T03:02:45.673Z,9.00
2023-05-21T03:05:13.993Z,9.68
2023-05-21T03:07:42.675Z,9.98
2023-05-21T03:10:12.114Z,10.80
2023-05-21T03:12:39.932Z,9.40
2023-05-21T03:15:08.658Z,11.18
2023-05-21T03:17:36.599Z,10.05
2023-05-21T03:20:05.510Z,9.20
2023-05-21T03:22:33.578Z,10.05
2023-05-21T03:25:04.871Z,9.57
2023-05-21T03:27:32.890Z,9.80
2023-05-21T03:30:06.822Z,10.32
2023-05-21T03:32:45.481Z,10.10
2023-05-21T03:35:13.718Z,10.00
2023-05-21T03:37:41.607Z,10.48
2023-05-21T03:40:10.872Z,10.43
2023-05-21T03:42:38.792Z,10.13
2023-05-21T03:45:07.706Z,9.82
2023-05-21T03:47:54.485Z,10.25
2023-05-21T03:50:22.739Z,8.82
2023-05-21T03:52:50.701Z,9.98
2023-05-21T03:55:19.108Z,10.10
2023-05-21T03:57:47.058Z,9.32
2023-05-21T04:00:16.805Z,9.70
2023-05-21T04:02:44.524Z,9.70
2023-05-21T04:05:16.800Z,10.00
2023-05-21T04:07:46.696Z,11.45
2023-05-21T04:10:15.138Z,8.52
2023-05-21T04:12:42.893Z,8.40
2023-05-21T04:15:11.303Z,9.77
2023-05-21T04:17:40.693Z,8.82
2023-05-21T04:20:09.177Z,8.60
2023-05-21T04:22:37.469Z,9.65
2023-05-21T04:25:06.367Z,9.50
2023-05-21T04:27:37.861Z,8.88
2023-05-21T04:30:06.762Z,9.05
2023-05-21T04:32:37.163Z,8.82
2023-05-21T04:35:06.077Z,8.48
2023-05-21T04:37:35.364Z,8.32
2023-05-21T04:40:04.474Z,7.88
2023-05-21T04:42:33.299Z,8.80
2023-05-21T04:45:03.058Z,8.13
2023-05-21T04:47:35.719Z,7.57
2023-05-21T04:50:05.920Z,7.88
2023-05-21T04:52:35.255Z,7.85
2023-05-21T04:55:04.088Z,7.38
2023-05-21T04:57:31.920Z,6.82
2023-05-21T05:00:01.385Z,7.97
2023-05-21T05:02:33.312Z,7.70
2023-05-21T05:05:01.677Z,8.15
2023-05-21T05:07:29.527Z,8.15
2023-05-21T05:09:57.736Z,7.65
2023-05-21T05:12:25.723Z,7.85
2023-05-21T05:14:53.826Z,7.30
2023-05-21T05:17:21.610Z,7.63
2023-05-21T05:19:49.782Z,7.25
2023-05-21T05:22:17.542Z,7.60
2023-05-21T05:24:45.793Z,8.38
2023-05-21T05:27:13.590Z,7.38
2023-05-21T05:29:41.831Z,7.38
2023-05-21T05:32:09.593Z,7.82
2023-05-21T05:37:06.925Z,8.13
2023-05-21T05:39:35.240Z,7.15
2023-05-21T05:42:03.721Z,7.35
2023-05-21T05:44:31.869Z,7.85
2023-05-21T05:47:00.303Z,7.38
2023-05-21T05:49:29.967Z,7.82
2023-05-21T05:51:57.859Z,7.75
2023-05-21T05:54:26.059Z,8.13
2023-05-21T05:56:53.829Z,7.72
2023-05-21T05:59:22.277Z,8.95
2023-05-21T06:01:52.080Z,8.57
2023-05-21T06:04:20.242Z,8.00
2023-05-21T06:06:48.980Z,8.55
2023-05-21T06:09:17.101Z,8.32
2023-05-21T06:11:44.954Z,9.07
2023-05-21T06:14:13.410Z,8.13
2023-05-21T06:16:41.535Z,7.68
2023-05-21T06:19:09.949Z,10.07
2023-05-21T06:21:38.257Z,9.15
2023-05-21T06:24:08.384Z,9.30
2023-05-21T06:26:36.442Z,9.80
2023-05-21T06:29:05.357Z,10.27
2023-05-21T06:31:33.416Z,9.60
2023-05-21T06:34:01.858Z,9.77
2023-05-21T06:36:30.386Z,10.00
2023-05-21T06:38:59.440Z,10.07
2023-05-21T06:41:28.623Z,10.52
2023-05-21T06:44:00.538Z,9.38
2023-05-21T06:47:00.207Z,11.20
2023-05-21T06:49:28.366Z,11.90
2023-05-21T06:51:56.199Z,12.30
2023-05-21T06:54:26.672Z,11.93
2023-05-21T06:56:55.428Z,12.48
2023-05-21T06:59:23.582Z,11.45
2023-05-21T07:01:51.421Z,11.75
2023-05-21T07:04:19.597Z,11.38
2023-05-21T07:06:48.693Z,13.07
2023-05-21T07:09:18.778Z,11.30
2023-05-21T07:11:47.981Z,10.57
2023-05-21T07:14:18.036Z,9.73
2023-05-21T07:16:46.021Z,10.02
2023-05-21T07:19:15.584Z,9.15
2023-05-21T07:21:44.705Z,9.77
2023-05-21T07:24:13.075Z,10.00
2023-05-21T07:26:42.623Z,8.63
2023-05-21T07:29:12.720Z,9.52
2023-05-21T07:31:40.799Z,9.30
2023-05-21T07:34:08.972Z,8.20
2023-05-21T07:36:37.169Z,8.18
2023-05-21T07:39:05.548Z,8.35
2023-05-21T07:41:33.874Z,9.18
2023-05-21T07:44:06.532Z,8.75
2023-05-21T07:46:38.205Z,8.40
2023-05-21T07:49:07.015Z,8.23
2023-05-21T07:51:34.954Z,8.40
2023-05-21T07:54:04.389Z,8.15
2023-05-21T07:56:36.288Z,9.52
2023-05-21T07:59:06.072Z,9.38
2023-05-21T08:01:33.969Z,10.07
2023-05-21T08:04:05.844Z,9.57
2023-05-21T08:06:40.313Z,9.70
2023-05-21T08:09:08.749Z,10.15
2023-05-21T08:11:36.780Z,10.32
2023-05-21T08:14:04.950Z,9.77
2023-05-21T08:16:33.029Z,9.52
2023-05-21T08:19:01.276Z,9.90
2023-05-21T08:21:29.270Z,10.13
2023-05-21T08:23:57.739Z,10.13
2023-05-21T08:26:26.407Z,9.40
2023-05-21T08:28:54.610Z,8.82
2023-05-21T08:31:22.527Z,9.55
2023-05-21T08:33:56.707Z,9.57
2023-05-21T08:36:36.888Z,8.98
2023-05-21T08:39:11.572Z,7.80
2023-05-21T08:41:49.980Z,6.15
2023-05-21T08:44:22.738Z,5.22
2023-05-21T08:46:52.168Z,5.43
2023-05-21T08:49:27.596Z,6.13
2023-05-21T08:51:56.807Z,6.97
2023-05-21T08:54:28.246Z,5.25
2023-05-21T08:56:58.765Z,5.53
2023-05-21T08:59:27.459Z,6.03
2023-05-21T09:01:57.949Z,5.32
2023-05-21T09:04:34.432Z,4.70
2023-05-21T09:07:03.161Z,5.47
2023-05-21T09:09:57.831Z,5.68
2023-05-21T09:12:27.930Z,4.95
2023-05-21T09:14:58.709Z,6.03
2023-05-21T09:17:31.339Z,5.45
2023-05-21T09:20:14.952Z,5.00
2023-05-21T09:22:56.294Z,5.28
2023-05-21T09:25:28.393Z,5.47
2023-05-21T09:27:59.455Z,5.53
2023-05-21T09:30:30.197Z,5.35
2023-05-21T09:33:00.641Z,5.97
2023-05-21T09:35:29.645Z,5.45
2023-05-21T09:37:57.760Z,4.88
2023-05-21T09:40:26.316Z,5.65
2023-05-21T09:42:55.395Z,5.57
2023-05-21T09:45:27.677Z,5.35
2023-05-21T09:47:58.552Z,5.47
2023-05-21T09:50:31.984Z,4.60
2023-05-21T09:52:59.990Z,5.20
2023-05-21T09:55:28.983Z,4.88
2023-05-21T09:57:59.276Z,5.07
2023-05-21T10:00:30.515Z,5.18
2023-05-21T10:03:01.968Z,5.32
2023-05-21T10:05:31.106Z,5.20
2023-05-21T10:08:04.272Z,4.85
2023-05-21T10:10:32.995Z,5.57
2023-05-21T10:13:07.224Z,6.03
2023-05-21T10:15:46.480Z,5.55
2023-05-21T10:18:16.676Z,5.57
2023-05-21T10:20:46.714Z,4.90
2023-05-21T10:23:14.746Z,5.60
2023-05-21T10:25:43.264Z,5.68
2023-05-21T10:28:16.317Z,5.20
2023-05-21T10:30:45.084Z,5.47
2023-05-21T10:33:17.009Z,6.00
2023-05-21T10:35:47.482Z,6.82
2023-05-21T10:38:18.863Z,5.85
2023-05-21T10:40:50.484Z,5.47
2023-05-21T10:43:42.807Z,5.65
2023-05-21T10:46:55.471Z,5.05
2023-05-21T10:49:55.102Z,5.85
2023-05-21T10:53:00.552Z,5.50
2023-05-21T10:55:50.417Z,5.88
2023-05-21T10:58:37.396Z,5.93
2023-05-21T11:01:07.202Z,6.25
2023-05-21T11:03:37.707Z,5.82
2023-05-21T11:06:06.669Z,6.63
2023-05-21T11:08:36.394Z,6.40
2023-05-21T11:11:05.690Z,6.22
2023-05-21T11:13:49.800Z,4.85
2023-05-21T11:16:18.414Z,6.30
2023-05-21T11:18:46.798Z,6.25
2023-05-21T11:21:17.239Z,5.90
2023-05-21T11:23:51.668Z,5.13
2023-05-21T11:26:55.431Z,5.32
2023-05-21T11:29:33.914Z,4.80
2023-05-21T11:32:03.261Z,4.88
2023-05-21T11:34:46.103Z,6.38
2023-05-21T11:37:17.291Z,5.53
2023-05-21T11:39:45.906Z,5.22
2023-05-21T11:42:27.876Z,5.22
2023-05-21T11:45:01.152Z,5.25
2023-05-21T11:47:30.418Z,6.13
2023-05-21T11:50:01.528Z,5.50
2023-05-21T11:52:31.277Z,4.82
2023-05-21T11:55:00.194Z,5.57
2023-05-21T11:57:32.852Z,5.28
2023-05-21T12:02:46.634Z,4.78
2023-05-21T12:05:15.370Z,5.13
2023-05-21T12:07:46.534Z,5.97
2023-05-21T12:10:14.932Z,5.13
2023-05-21T12:12:54.090Z,5.15
2023-05-21T12:15:26.444Z,6.05
2023-05-21T12:17:55.613Z,4.53
2023-05-21T12:20:26.541Z,5.05
2023-05-21T12:22:54.714Z,5.53
2023-05-21T12:25:23.337Z,5.00
2023-05-21T12:27:58.385Z,4.88
2023-05-21T12:30:27.456Z,5.00
2023-05-21T12:32:58.716Z,4.70
2023-05-21T12:35:27.291Z,4.43
2023-05-21T12:37:55.408Z,4.95
2023-05-21T12:40:37.496Z,4.75
2023-05-21T12:43:06.372Z,4.80
2023-05-21T12:45:35.074Z,4.47
2023-05-21T12:48:03.684Z,5.35
2023-05-21T12:50:33.382Z,4.57
2023-05-21T12:53:01.473Z,4.70
2023-05-21T12:55:31.770Z,5.05
2023-05-21T12:58:05.831Z,4.63
2023-05-21T13:00:35.245Z,4.60
2023-05-21T13:03:04.901Z,5.03
2023-05-21T13:05:33.583Z,4.85
2023-05-21T13:08:01.963Z,4.60
2023-05-21T13:10:30.384Z,4.57
2023-05-21T13:12:58.513Z,5.20
2023-05-21T13:15:27.299Z,4.63
2023-05-21T13:17:56.936Z,4.72
2023-05-21T13:20:27.797Z,5.50
2023-05-21T13:22:56.364Z,5.00
2023-05-21T13:25:32.915Z,4.50
2023-05-21T13:28:10.484Z,5.30
2023-05-21T13:30:39.303Z,4.32
2023-05-21T13:33:07.691Z,5.05
2023-05-21T13:35:36.466Z,5.65
2023-05-21T13:38:04.645Z,4.47
2023-05-21T13:40:33.282Z,4.68
2023-05-21T13:43:01.423Z,5.00
2023-05-21T13:45:29.891Z,4.47
2023-05-21T13:47:58.425Z,4.97
2023-05-21T13:50:27.110Z,5.15
2023-05-21T13:52:55.153Z,4.57
2023-05-21T13:55:23.629Z,4.25
2023-05-21T13:57:51.829Z,4.05
2023-05-21T14:00:20.242Z,4.13
2023-05-21T14:02:48.753Z,4.53
2023-05-21T14:05:19.293Z,5.15
2023-05-21T14:07:48.860Z,4.53
2023-05-21T14:10:17.471Z,3.92
2023-05-21T14:12:46.482Z,4.10
2023-05-21T14:15:15.237Z,4.38
2023-05-21T14:17:43.409Z,4.57
2023-05-21T14:20:12.412Z,4.40
2023-05-21T14:22:40.594Z,5.45
2023-05-21T14:25:09.532Z,4.43
2023-05-21T14:27:38.508Z,3.67
2023-05-21T14:30:07.790Z,5.22
2023-05-21T14:32:36.042Z,4.47
2023-05-21T14:35:05.231Z,3.70
2023-05-21T14:37:33.390Z,3.63
2023-05-21T14:40:02.128Z,4.32
2023-05-21T14:42:30.773Z,4.28
2023-05-21T14:44:59.503Z,3.90
2023-05-21T14:47:27.660Z,4.25
2023-05-21T14:49:56.075Z,3.88
2023-05-21T14:52:24.246Z,3.75
2023-05-21T14:54:52.640Z,3.60
2023-05-21T14:57:21.328Z,3.72
2023-05-21T14:59:49.829Z,3.90
2023-05-21T15:02:18.035Z,4.88
2023-05-21T15:04:46.546Z,3.65
2023-05-21T15:07:14.746Z,3.85
2023-05-21T15:09:43.375Z,3.60
2023-05-21T15:12:11.376Z,4.18
2023-05-21T15:14:41.213Z,3.65
2023-05-21T15:17:09.058Z,4.07
2023-05-21T15:19:37.343Z,3.40
2023-05-21T15:22:05.180Z,4.00
2023-05-21T15:24:33.449Z,5.00
2023-05-21T15:27:01.383Z,4.00
2023-05-21T15:29:29.655Z,3.72
2023-05-21T15:31:57.518Z,4.57
2023-05-21T15:34:26.126Z,4.50
2023-05-21T15:36:54.296Z,3.90
2023-05-21T15:39:22.448Z,4.00
2023-05-21T15:41:50.427Z,4.20
2023-05-21T15:44:18.595Z,3.85
2023-05-21T15:46:46.585Z,4.50
2023-05-21T15:49:14.966Z,4.28
2023-05-21T15:51:44.657Z,3.90
2023-05-21T15:54:14.090Z,3.72
2023-05-21T15:56:44.704Z,4.40
2023-05-21T15:59:14.229Z,4.25
2023-05-21T16:01:42.528Z,4.03
2023-05-21T16:04:10.865Z,3.50
2023-05-21T16:06:39.108Z,3.90
2023-05-21T16:09:07.286Z,4.30
2023-05-21T16:11:35.818Z,3.92
2023-05-21T16:14:04.015Z,3.95
2023-05-21T16:16:32.130Z,4.13
2023-05-21T16:19:02.056Z,3.95
2023-05-21T16:21:29.968Z,4.50
2023-05-21T16:23:58.125Z,4.20
2023-05-21T16:26:26.331Z,3.90
2023-05-21T16:28:55.024Z,4.15
2023-05-21T16:31:23.196Z,4.43
2023-05-21T16:33:51.656Z,3.90
2023-05-21T16:36:19.493Z,4.00
2023-05-21T16:38:47.626Z,4.65
2023-05-21T16:41:15.825Z,4.75
2023-05-21T16:43:44.566Z,4.47
2023-05-21T16:46:12.640Z,4.28
2023-05-21T16:48:42.120Z,4.10
2023-05-21T16:51:10.207Z,4.00
2023-05-21T16:53:38.807Z,4.15
2023-05-21T16:56:07.085Z,4.40
2023-05-21T16:58:36.474Z,4.53
2023-05-21T17:01:04.521Z,4.30
2023-05-21T17:03:33.107Z,4.18
2023-05-21T17:06:01.119Z,4.40
2023-05-21T17:08:29.526Z,4.45
2023-05-21T17:10:57.425Z,4.45
2023-05-21T17:13:26.102Z,5.25
2023-05-21T17:15:54.260Z,5.13
2023-05-21T17:18:22.455Z,4.85
2023-05-21T17:20:50.651Z,4.53
2023-05-21T17:23:19.347Z,5.20
2023-05-21T17:25:47.356Z,4.32
2023-05-21T17:28:17.190Z,4.78
2023-05-21T17:30:46.358Z,4.47
2023-05-21T17:33:15.962Z,4.35
2023-05-21T17:35:43.984Z,4.80
2023-05-21T17:38:12.117Z,4.72
2023-05-21T17:40:40.424Z,4.43
2023-05-21T17:43:08.767Z,4.20
2023-05-21T17:45:36.752Z,4.57
2023-05-21T17:48:05.665Z,4.60
2023-05-21T17:50:34.470Z,5.55
2023-05-21T17:53:03.037Z,4.57
2023-05-21T17:55:30.823Z,4.97
2023-05-21T17:57:59.404Z,5.10
2023-05-21T18:00:27.336Z,5.55
2023-05-21T18:02:55.615Z,4.07
2023-05-21T18:05:24.096Z,4.80
2023-05-21T18:07:52.315Z,4.70
2023-05-21T18:10:20.574Z,4.55
2023-05-21T18:12:48.714Z,5.20
2023-05-21T18:15:16.550Z,4.68
2023-05-21T18:17:45.091Z,5.07
2023-05-21T18:20:13.855Z,4.82
2023-05-21T18:22:42.041Z,4.90
2023-05-21T18:25:10.226Z,4.45
2023-05-21T18:27:38.606Z,5.32
2023-05-21T18:30:07.230Z,5.05
2023-05-21T18:32:38.901Z,4.57
2023-05-21T18:35:08.218Z,5.45
2023-05-21T18:37:37.491Z,5.43
2023-05-21T18:40:06.211Z,7.70
2023-05-21T18:42:34.672Z,5.90
2023-05-21T18:45:10.535Z,6.30
2023-05-21T18:47:40.592Z,5.82
2023-05-21T18:50:14.084Z,4.75
2023-05-21T18:52:42.368Z,7.25
2023-05-21T18:55:10.537Z,5.20
2023-05-21T18:57:39.878Z,5.68
2023-05-21T19:00:09.863Z,5.53
2023-05-21T19:02:39.967Z,5.63
2023-05-21T19:05:08.208Z,5.18
2023-05-21T19:07:36.694Z,5.75
2023-05-21T19:10:05.094Z,5.78
2023-05-21T19:12:36.399Z,5.85
2023-05-21T19:15:05.121Z,5.93
2023-05-21T19:17:35.572Z,5.78
2023-05-21T19:20:05.678Z,5.93
2023-05-21T19:22:37.825Z,5.97
2023-05-21T19:25:06.466Z,6.75
2023-05-21T19:27:34.852Z,6.78
2023-05-21T19:30:02.867Z,7.28
2023-05-21T19:32:31.703Z,6.15
2023-05-21T19:34:59.696Z,5.57
2023-05-21T19:37:28.304Z,5.70
2023-05-21T19:39:56.415Z,6.18
2023-05-21T19:42:24.676Z,6.32
2023-05-21T19:44:52.636Z,5.80
2023-05-21T19:47:21.294Z,6.03
2023-05-21T19:49:49.333Z,6.07
2023-05-21T19:52:17.783Z,5.95
2023-05-21T19:54:45.939Z,6.13
2023-05-21T19:57:14.263Z,6.00
2023-05-21T19:59:42.262Z,6.20
2023-05-21T20:02:17.179Z,5.78
2023-05-21T20:04:45.638Z,6.30
2023-05-21T20:07:15.016Z,5.32
2023-05-21T20:09:43.205Z,5.35
2023-05-21T20:12:11.971Z,5.65
2023-05-21T20:14:40.094Z,5.85
2023-05-21T20:17:08.976Z,6.40
2023-05-21T20:19:38.083Z,5.57
2023-05-21T20:22:07.000Z,6.25
2023-05-21T20:24:35.112Z,5.70
2023-05-21T20:27:03.893Z,5.47
2023-05-21T20:29:33.063Z,5.50
2023-05-21T20:32:01.355Z,5.80
2023-05-21T20:34:30.038Z,6.20
2023-05-21T20:36:58.609Z,5.50
2023-05-21T20:39:30.067Z,6.13
2023-05-21T20:42:00.098Z,6.43
2023-05-21T20:44:29.311Z,5.82
2023-05-21T20:46:57.589Z,5.75
2023-05-21T20:49:26.057Z,5.90
2023-05-21T20:51:54.705Z,6.15
2023-05-21T20:54:22.669Z,6.20
2023-05-21T20:56:51.038Z,5.32
2023-05-21T20:59:19.140Z,6.00
2023-05-21T21:01:47.548Z,6.07
2023-05-21T21:04:16.341Z,6.07
2023-05-21T21:06:46.786Z,6.13
2023-05-21T21:09:14.759Z,5.70
2023-05-21T21:11:43.067Z,6.55
2023-05-21T21:14:11.190Z,5.20
2023-05-21T21:16:39.531Z,5.07
2023-05-21T21:19:07.577Z,5.82
2023-05-21T21:21:36.320Z,5.57
2023-05-21T21:24:04.608Z,5.28
2023-05-21T21:26:32.870Z,5.75
2023-05-21T21:29:01.484Z,5.57
2023-05-21T21:31:30.191Z,6.10
2023-05-21T21:33:58.476Z,5.68
2023-05-21T21:36:26.451Z,7.03
2023-05-21T21:38:55.722Z,5.65
2023-05-21T21:41:23.882Z,6.70
2023-05-21T21:43:52.594Z,5.70
2023-05-21T21:46:20.913Z,6.00
2023-05-21T21:48:49.168Z,5.55
2023-05-21T21:51:17.294Z,6.97
2023-05-21T21:53:45.543Z,5.95
2023-05-21T21:56:13.418Z,5.85
2023-05-21T21:58:41.815Z,6.00
2023-05-21T22:01:09.877Z,6.35
2023-05-21T22:03:38.184Z,5.95
2023-05-21T22:06:06.342Z,5.97
2023-05-21T22:08:34.595Z,5.90
2023-05-21T22:11:03.496Z,5.85
2023-05-21T22:13:31.696Z,5.97
2023-05-21T22:15:59.613Z,6.10
2023-05-21T22:18:40.331Z,6.13
2023-05-21T22:21:14.496Z,5.25
2023-05-21T22:23:42.996Z,5.85
2023-05-21T22:26:11.005Z,6.03
2023-05-21T22:28:39.333Z,5.75
2023-05-21T22:31:08.018Z,5.07
2023-05-21T22:33:36.927Z,6.00
2023-05-21T22:36:05.391Z,5.70
2023-05-21T22:38:33.943Z,5.85
2023-05-21T22:41:02.141Z,5.75
2023-05-21T22:43:30.607Z,5.70
2023-05-21T22:45:58.828Z,5.90
2023-05-21T22:48:27.107Z,5.80
2023-05-21T22:50:55.007Z,4.88
2023-05-21T22:53:23.767Z,5.78
2023-05-21T22:55:51.719Z,5.60
2023-05-21T22:58:20.078Z,7.10
2023-05-21T23:00:48.355Z,6.28
2023-05-21T23:03:16.968Z,8.65
2023-05-21T23:05:45.454Z,9.70
2023-05-21T23:08:14.376Z,10.63
2023-05-21T23:10:42.723Z,11.13
2023-05-21T23:13:13.051Z,9.77
2023-05-21T23:15:44.124Z,10.77
2023-05-21T23:18:12.912Z,10.05
2023-05-21T23:20:41.644Z,9.60
2023-05-21T23:23:11.188Z,9.93
2023-05-21T23:25:39.625Z,7.57
2023-05-21T23:28:08.025Z,8.00
2023-05-21T23:30:36.245Z,7.25
2023-05-21T23:33:05.202Z,6.97
2023-05-21T23:35:33.448Z,5.72
2023-05-21T23:38:02.071Z,5.53
2023-05-21T23:40:30.155Z,4.68
2023-05-21T23:42:58.957Z,5.03
2023-05-21T23:45:27.092Z,4.63
2023-05-21T23:47:55.808Z,4.28
2023-05-21T23:50:24.982Z,5.55
2023-05-21T23:52:53.957Z,4.60
2023-05-21T23:55:22.085Z,5.38
2023-05-21T23:57:50.704Z,5.28
